Airfield :
LOGIN :

Register | Disclaimer

   EN    FR    IT 

 










Legend :    VFR   Marginal VFR   IFR   Intensive IFR   Very Intensive IFR
Visi :
Ceiling :
>= 8 km
>= 3000ft
5 to 8 km
1000 to 3000 ft
1500m to 5 km
500 to 1000 ft
800 to 1500m
200 to 500 ft
< 800m
< 200 ft
Symbols :   Thunderstorms  Fog  Heavy snow  Heavy precipitations  Wind > 20 kt
SIGMETs :     Misc.  Thunderstorms  Icing  Turbulence  Mountain Waves  Volcanic Ashes






- Airport Elevation : 1895 ft


LSMM - Meiringen

CURRENT METAR :
  • 272150Z AUTO VRB01KT 0350NDV R10/0375N R28/0600V0800N FZFG SCT001 M03/M03 Q1019 RMK

EXPIRED METARs :
  • 272120Z AUTO VRB01KT 0550NDV R10/0700D R28/0700V1500D FZFG SCT001 M03/M03 Q1019 RMK
  • 272050Z AUTO 00000KT 3200NDV SCT001 M03/M03 Q1019 RMK
  • 272020Z AUTO 07003KT 030V110 2400NDV SCT003 M04/M04 Q1019 RMK
  • 271950Z AUTO 10002KT 3700NDV BR SCT003 M03/M03 Q1019 RMK
  • 271920Z AUTO 00000KT 9999NDV SCT003 M03/M03 Q1019 RMK

Expired Forecast.



MET'MAP, your aeronautical weather chart ! - Copyright ORBIFLY December 2007 - Disclaimer

ORBIFLY MET'MAP TEAM :

Programming & Development : Alexandra Zaïnal
Concept & original design : Baudouin d'Aumeries
Assistance for programming : Marc-Olivier Méhu
Technical & hardware support : Manuel Goepfert

Contact : metmap@orbifly.com




SOURCES & CREDITS :

   NOAA